Aérodrome :
LOGIN :

S'inscrire | Disclaimer

   EN    FR    IT 

 










Légende :    VFR   VFR Marginal   IFR   IFR Intensif   IFR Très Intensif
Visi : 
Plafond : 
>= 8 km
>= 3000ft
5 à 8 km
1000 à 3000 ft
1500m à 5 km
500 à 1000 ft
800 à 1500m
200 à 500 ft
< 800m
< 200 ft
Symboles :   Orages  Brouillard  Fortes neiges  Fortes précipitations  Vent > 20 kt
SIGMETs :   Divers  Orages  Givrage  Turbulence  Onde Orograph.  Cendres Volcan.







- Altitude de l'aérodrome : 74 ft
- Code IATA : EIN


EHEH - Eindhoven

DERNIER METAR :
  • 191825Z AUTO VRB02KT 9999 SCT040 OVC180 12/11 Q1020 BLU 35005KT 9999 FEW035 BKN070 TEMPO FEW025CB BKN040

METARs EXPIRÉS :
  • 191755Z AUTO 27002KT 9999 FEW071 SCT093 BKN200 14/11 Q1020 BLU 35005KT 9999 FEW035 BKN070 TEMPO FEW025CB BKN040
  • 191725Z AUTO VRB02KT 9999 BKN064 OVC070 15/10 Q1019 BLU 35005KT 9999 FEW035 BKN070 TEMPO FEW025CB BKN040
  • 191655Z AUTO VRB03KT 9999 OVC063 15/10 Q1019 BLU 35005KT 9999 FEW035 BKN070 TEMPO FEW025CB BKN040
  • 191625Z AUTO 34008KT 290V030 9999 FEW034 BKN039 OVC047 16/10 Q1019 BLU 35005KT 9999 FEW035 BKN070 TEMPO FEW025CB BKN040
  • 191555Z AUTO 29006KT 230V330 9999 SCT034 BKN038 BKN044 17/10 Q1019 BLU 35005KT 9999 FEW035 BKN070 TEMPO FEW025CB BKN040

TAF TAF EHEH
Valide du 19 à 18h jusqu'au 21 à 00h UTC


191707Z 1918/2024 34006KT 9999 SCT035
PROB30
TEMPO 1918/1920 FEW025CB BKN040
BECMG 1920/1921 29004KT
PROB40 2000/2007 4000 BR MIFG
PROB30
TEMPO 2016/2024 FEW025CB SCT030
BECMG 2017/2019 21004KT
Pas de NOTAMs connus pour ce terrain.



MET'MAP, la Météo Aéronautique d'un coup d'oeil ! - Copyright ORBIFLY Décembre 2007 - Disclaimer

ORBIFLY MET'MAP TEAM :

Programmation & Développement : Alexandra Zaïnal
Conception & Développement : Baudouin d'Aumeries
Co-Programmation & Développement : Marc-Olivier Méhu
Soutien technique & logistique : Manuel Goepfert

Contact : metmap@orbifly.com




SOURCES & CREDITS :

   NOAA